sensor_id;sensor_type;location;lat;lon;timestamp;temperature;humidity
7117;DHT22;3600;48.568;7.870;2023-07-31T00:02:02;17.50;99.90
7117;DHT22;3600;48.568;7.870;2023-07-31T00:04:29;17.50;99.90
7117;DHT22;3600;48.568;7.870;2023-07-31T00:06:56;17.50;99.90
7117;DHT22;3600;48.568;7.870;2023-07-31T00:09:22;17.50;99.90
7117;DHT22;3600;48.568;7.870;2023-07-31T00:11:49;17.50;99.90
7117;DHT22;3600;48.568;7.870;2023-07-31T00:14:16;17.50;99.90
7117;DHT22;3600;48.568;7.870;2023-07-31T00:16:43;17.50;99.90
7117;DHT22;3600;48.568;7.870;2023-07-31T00:19:10;17.40;99.90
7117;DHT22;3600;48.568;7.870;2023-07-31T00:21:37;17.30;99.90
7117;DHT22;3600;48.568;7.870;2023-07-31T00:24:03;17.20;99.90
7117;DHT22;3600;48.568;7.870;2023-07-31T00:26:30;17.20;99.90
7117;DHT22;3600;48.568;7.870;2023-07-31T00:28:57;17.20;99.90
7117;DHT22;3600;48.568;7.870;2023-07-31T00:31:24;17.30;99.90
7117;DHT22;3600;48.568;7.870;2023-07-31T00:33:51;17.20;99.90
7117;DHT22;3600;48.568;7.870;2023-07-31T00:36:17;17.20;99.90
7117;DHT22;3600;48.568;7.870;2023-07-31T00:38:44;17.20;99.90
7117;DHT22;3600;48.568;7.870;2023-07-31T00:41:11;17.20;99.90
7117;DHT22;3600;48.568;7.870;2023-07-31T00:43:38;17.20;99.90
7117;DHT22;3600;48.568;7.870;2023-07-31T00:46:06;17.20;99.90
7117;DHT22;3600;48.568;7.870;2023-07-31T00:48:34;17.10;99.90
7117;DHT22;3600;48.568;7.870;2023-07-31T00:51:01;17.10;99.90
7117;DHT22;3600;48.568;7.870;2023-07-31T00:53:28;17.10;99.90
7117;DHT22;3600;48.568;7.870;2023-07-31T00:55:56;17.10;99.90
7117;DHT22;3600;48.568;7.870;2023-07-31T00:58:23;17.10;99.90
7117;DHT22;3600;48.568;7.870;2023-07-31T01:00:52;17.10;99.90
7117;DHT22;3600;48.568;7.870;2023-07-31T01:03:19;17.10;99.90
7117;DHT22;3600;48.568;7.870;2023-07-31T01:11:14;17.10;99.90
7117;DHT22;3600;48.568;7.870;2023-07-31T01:13:44;17.20;99.90
7117;DHT22;3600;48.568;7.870;2023-07-31T01:16:11;17.20;99.90
7117;DHT22;3600;48.568;7.870;2023-07-31T01:18:39;17.20;99.90
7117;DHT22;3600;48.568;7.870;2023-07-31T01:26:36;17.10;99.90
7117;DHT22;3600;48.568;7.870;2023-07-31T01:29:36;17.00;99.90
7117;DHT22;3600;48.568;7.870;2023-07-31T01:32:06;17.00;99.90
7117;DHT22;3600;48.568;7.870;2023-07-31T01:34:35;16.90;99.90
7117;DHT22;3600;48.568;7.870;2023-07-31T01:37:03;16.90;99.90
7117;DHT22;3600;48.568;7.870;2023-07-31T01:39:30;16.90;99.90
7117;DHT22;3600;48.568;7.870;2023-07-31T01:41:57;16.80;99.90
7117;DHT22;3600;48.568;7.870;2023-07-31T01:44:24;16.80;99.90
7117;DHT22;3600;48.568;7.870;2023-07-31T01:46:51;16.80;99.90
7117;DHT22;3600;48.568;7.870;2023-07-31T01:49:18;16.80;99.90
7117;DHT22;3600;48.568;7.870;2023-07-31T01:51:48;16.80;99.90
7117;DHT22;3600;48.568;7.870;2023-07-31T01:54:15;16.80;99.90
7117;DHT22;3600;48.568;7.870;2023-07-31T01:56:41;16.70;99.90
7117;DHT22;3600;48.568;7.870;2023-07-31T01:59:09;16.70;99.90
7117;DHT22;3600;48.568;7.870;2023-07-31T02:01:42;16.70;99.90
7117;DHT22;3600;48.568;7.870;2023-07-31T02:04:09;16.60;99.90
7117;DHT22;3600;48.568;7.870;2023-07-31T02:06:36;16.60;99.90
7117;DHT22;3600;48.568;7.870;2023-07-31T02:09:03;16.50;99.90
7117;DHT22;3600;48.568;7.870;2023-07-31T02:11:30;16.50;99.90
7117;DHT22;3600;48.568;7.870;2023-07-31T02:13:58;16.40;99.90
7117;DHT22;3600;48.568;7.870;2023-07-31T02:16:27;16.50;99.90
7117;DHT22;3600;48.568;7.870;2023-07-31T02:18:55;16.50;99.90
7117;DHT22;3600;48.568;7.870;2023-07-31T02:21:21;16.50;99.90
7117;DHT22;3600;48.568;7.870;2023-07-31T02:23:48;16.50;99.90
7117;DHT22;3600;48.568;7.870;2023-07-31T02:26:15;16.40;99.90
7117;DHT22;3600;48.568;7.870;2023-07-31T02:28:42;16.40;99.90
7117;DHT22;3600;48.568;7.870;2023-07-31T02:31:09;16.40;99.90
7117;DHT22;3600;48.568;7.870;2023-07-31T02:33:36;16.40;99.90
7117;DHT22;3600;48.568;7.870;2023-07-31T02:36:03;16.40;99.90
7117;DHT22;3600;48.568;7.870;2023-07-31T02:38:30;16.40;99.90
7117;DHT22;3600;48.568;7.870;2023-07-31T02:40:57;16.40;99.90
7117;DHT22;3600;48.568;7.870;2023-07-31T02:43:24;16.30;99.90
7117;DHT22;3600;48.568;7.870;2023-07-31T02:45:52;16.30;99.90
7117;DHT22;3600;48.568;7.870;2023-07-31T02:48:19;16.30;99.90
7117;DHT22;3600;48.568;7.870;2023-07-31T02:50:47;16.20;99.90
7117;DHT22;3600;48.568;7.870;2023-07-31T02:53:14;16.30;99.90
7117;DHT22;3600;48.568;7.870;2023-07-31T02:55:41;16.20;99.90
7117;DHT22;3600;48.568;7.870;2023-07-31T02:58:08;16.30;99.90
7117;DHT22;3600;48.568;7.870;2023-07-31T03:00:35;16.20;99.90
7117;DHT22;3600;48.568;7.870;2023-07-31T03:03:02;16.20;99.90
7117;DHT22;3600;48.568;7.870;2023-07-31T03:05:29;16.20;99.90
7117;DHT22;3600;48.568;7.870;2023-07-31T03:07:56;16.20;99.90
7117;DHT22;3600;48.568;7.870;2023-07-31T03:10:22;16.20;99.90
7117;DHT22;3600;48.568;7.870;2023-07-31T03:12:50;16.20;99.90
7117;DHT22;3600;48.568;7.870;2023-07-31T03:15:16;16.10;99.90
7117;DHT22;3600;48.568;7.870;2023-07-31T03:17:43;16.10;99.90
7117;DHT22;3600;48.568;7.870;2023-07-31T03:20:10;16.00;99.90
7117;DHT22;3600;48.568;7.870;2023-07-31T03:22:37;16.00;99.90
7117;DHT22;3600;48.568;7.870;2023-07-31T03:25:04;16.00;99.90
7117;DHT22;3600;48.568;7.870;2023-07-31T03:27:31;16.10;99.90
7117;DHT22;3600;48.568;7.870;2023-07-31T03:29:59;16.10;99.90
7117;DHT22;3600;48.568;7.870;2023-07-31T03:32:26;16.00;99.90
7117;DHT22;3600;48.568;7.870;2023-07-31T03:34:53;16.00;99.90
7117;DHT22;3600;48.568;7.870;2023-07-31T03:37:19;16.00;99.90
7117;DHT22;3600;48.568;7.870;2023-07-31T03:39:46;16.00;99.90
7117;DHT22;3600;48.568;7.870;2023-07-31T03:42:13;16.00;99.90
7117;DHT22;3600;48.568;7.870;2023-07-31T03:44:40;16.00;99.90
7117;DHT22;3600;48.568;7.870;2023-07-31T03:47:07;16.00;99.90
7117;DHT22;3600;48.568;7.870;2023-07-31T03:49:34;16.00;99.90
7117;DHT22;3600;48.568;7.870;2023-07-31T03:52:00;16.10;99.90
7117;DHT22;3600;48.568;7.870;2023-07-31T03:54:27;16.10;99.90
7117;DHT22;3600;48.568;7.870;2023-07-31T03:56:54;16.10;99.90
7117;DHT22;3600;48.568;7.870;2023-07-31T03:59:21;16.10;99.90
7117;DHT22;3600;48.568;7.870;2023-07-31T04:01:48;16.20;99.90
7117;DHT22;3600;48.568;7.870;2023-07-31T04:04:14;16.10;99.90
7117;DHT22;3600;48.568;7.870;2023-07-31T04:06:41;16.20;99.90
7117;DHT22;3600;48.568;7.870;2023-07-31T04:09:08;16.20;99.90
7117;DHT22;3600;48.568;7.870;2023-07-31T04:11:35;16.20;99.90
7117;DHT22;3600;48.568;7.870;2023-07-31T04:14:01;16.20;99.90
7117;DHT22;3600;48.568;7.870;2023-07-31T04:16:28;16.20;99.90
7117;DHT22;3600;48.568;7.870;2023-07-31T04:18:55;16.20;99.90
7117;DHT22;3600;48.568;7.870;2023-07-31T04:21:24;16.20;99.90
7117;DHT22;3600;48.568;7.870;2023-07-31T04:23:51;16.20;99.90
7117;DHT22;3600;48.568;7.870;2023-07-31T04:26:22;16.20;99.90
7117;DHT22;3600;48.568;7.870;2023-07-31T04:28:49;16.20;99.90
7117;DHT22;3600;48.568;7.870;2023-07-31T04:31:16;16.20;99.90
7117;DHT22;3600;48.568;7.870;2023-07-31T04:33:43;16.20;99.90
7117;DHT22;3600;48.568;7.870;2023-07-31T04:36:09;16.10;99.90
7117;DHT22;3600;48.568;7.870;2023-07-31T04:38:36;16.20;99.90
7117;DHT22;3600;48.568;7.870;2023-07-31T04:41:03;16.20;99.90
7117;DHT22;3600;48.568;7.870;2023-07-31T04:43:32;16.20;99.90
7117;DHT22;3600;48.568;7.870;2023-07-31T04:45:59;16.20;99.90
7117;DHT22;3600;48.568;7.870;2023-07-31T04:48:25;16.30;99.90
7117;DHT22;3600;48.568;7.870;2023-07-31T04:50:52;16.30;99.90
7117;DHT22;3600;48.568;7.870;2023-07-31T04:53:19;16.30;99.90
7117;DHT22;3600;48.568;7.870;2023-07-31T04:55:46;16.30;99.90
7117;DHT22;3600;48.568;7.870;2023-07-31T04:58:13;16.30;99.90
7117;DHT22;3600;48.568;7.870;2023-07-31T05:00:42;16.40;99.90
7117;DHT22;3600;48.568;7.870;2023-07-31T05:03:09;16.30;99.90
7117;DHT22;3600;48.568;7.870;2023-07-31T05:05:37;16.40;99.90
7117;DHT22;3600;48.568;7.870;2023-07-31T05:08:04;16.40;99.90
7117;DHT22;3600;48.568;7.870;2023-07-31T05:10:31;16.40;99.90
7117;DHT22;3600;48.568;7.870;2023-07-31T05:12:58;16.40;99.90
7117;DHT22;3600;48.568;7.870;2023-07-31T05:15:24;16.40;99.90
7117;DHT22;3600;48.568;7.870;2023-07-31T05:17:51;16.40;99.90
7117;DHT22;3600;48.568;7.870;2023-07-31T05:20:18;16.40;99.90
7117;DHT22;3600;48.568;7.870;2023-07-31T05:22:45;16.50;99.90
7117;DHT22;3600;48.568;7.870;2023-07-31T05:25:12;16.50;99.90
7117;DHT22;3600;48.568;7.870;2023-07-31T05:27:39;16.50;99.90
7117;DHT22;3600;48.568;7.870;2023-07-31T05:30:06;16.50;99.90
7117;DHT22;3600;48.568;7.870;2023-07-31T05:32:33;16.50;99.90
7117;DHT22;3600;48.568;7.870;2023-07-31T05:35:00;16.50;99.90
7117;DHT22;3600;48.568;7.870;2023-07-31T05:37:27;16.60;99.90
7117;DHT22;3600;48.568;7.870;2023-07-31T05:39:54;16.60;99.90
7117;DHT22;3600;48.568;7.870;2023-07-31T05:42:20;16.60;99.90
7117;DHT22;3600;48.568;7.870;2023-07-31T05:44:47;16.60;99.90
7117;DHT22;3600;48.568;7.870;2023-07-31T05:47:14;16.60;99.90
7117;DHT22;3600;48.568;7.870;2023-07-31T05:49:41;16.60;99.90
7117;DHT22;3600;48.568;7.870;2023-07-31T05:52:07;16.70;99.90
7117;DHT22;3600;48.568;7.870;2023-07-31T05:54:34;16.70;99.90
7117;DHT22;3600;48.568;7.870;2023-07-31T05:57:01;16.80;99.90
7117;DHT22;3600;48.568;7.870;2023-07-31T05:59:28;16.80;99.90
7117;DHT22;3600;48.568;7.870;2023-07-31T06:01:55;16.80;99.90
7117;DHT22;3600;48.568;7.870;2023-07-31T06:04:22;16.80;99.90
7117;DHT22;3600;48.568;7.870;2023-07-31T06:06:51;16.90;99.90
7117;DHT22;3600;48.568;7.870;2023-07-31T06:09:18;16.90;99.90
7117;DHT22;3600;48.568;7.870;2023-07-31T06:11:46;16.90;99.90
7117;DHT22;3600;48.568;7.870;2023-07-31T06:14:13;16.90;99.90
7117;DHT22;3600;48.568;7.870;2023-07-31T06:16:40;16.90;99.90
7117;DHT22;3600;48.568;7.870;2023-07-31T06:19:08;17.00;99.90
7117;DHT22;3600;48.568;7.870;2023-07-31T06:21:34;17.00;99.90
7117;DHT22;3600;48.568;7.870;2023-07-31T06:24:05;17.10;99.90
7117;DHT22;3600;48.568;7.870;2023-07-31T06:26:32;17.10;99.90
7117;DHT22;3600;48.568;7.870;2023-07-31T06:28:59;17.10;99.90
7117;DHT22;3600;48.568;7.870;2023-07-31T06:31:25;17.20;99.90
7117;DHT22;3600;48.568;7.870;2023-07-31T06:33:53;17.20;99.90
7117;DHT22;3600;48.568;7.870;2023-07-31T06:36:20;17.20;99.90
7117;DHT22;3600;48.568;7.870;2023-07-31T06:38:47;17.30;99.90
7117;DHT22;3600;48.568;7.870;2023-07-31T06:41:14;17.30;99.90
7117;DHT22;3600;48.568;7.870;2023-07-31T06:43:41;17.40;99.90
7117;DHT22;3600;48.568;7.870;2023-07-31T06:46:09;17.40;99.90
7117;DHT22;3600;48.568;7.870;2023-07-31T06:48:36;17.50;99.90
7117;DHT22;3600;48.568;7.870;2023-07-31T06:51:04;17.50;99.90
7117;DHT22;3600;48.568;7.870;2023-07-31T06:53:31;17.60;99.90
7117;DHT22;3600;48.568;7.870;2023-07-31T06:55:57;17.60;99.90
7117;DHT22;3600;48.568;7.870;2023-07-31T06:58:24;17.70;99.90
7117;DHT22;3600;48.568;7.870;2023-07-31T07:00:51;17.70;99.90
7117;DHT22;3600;48.568;7.870;2023-07-31T07:03:18;17.80;99.90
7117;DHT22;3600;48.568;7.870;2023-07-31T07:05:45;17.80;99.90
7117;DHT22;3600;48.568;7.870;2023-07-31T07:08:12;17.80;99.90
7117;DHT22;3600;48.568;7.870;2023-07-31T07:10:39;17.90;99.90
7117;DHT22;3600;48.568;7.870;2023-07-31T07:13:06;17.90;99.90
7117;DHT22;3600;48.568;7.870;2023-07-31T07:15:33;18.00;99.90
7117;DHT22;3600;48.568;7.870;2023-07-31T07:18:00;18.00;99.90
7117;DHT22;3600;48.568;7.870;2023-07-31T07:20:26;18.10;99.90
7117;DHT22;3600;48.568;7.870;2023-07-31T07:22:53;18.20;99.90
7117;DHT22;3600;48.568;7.870;2023-07-31T07:25:20;18.20;99.90
7117;DHT22;3600;48.568;7.870;2023-07-31T07:27:47;18.30;99.90
7117;DHT22;3600;48.568;7.870;2023-07-31T07:30:14;18.40;99.90
7117;DHT22;3600;48.568;7.870;2023-07-31T07:32:41;18.40;99.90
7117;DHT22;3600;48.568;7.870;2023-07-31T07:35:08;18.40;99.90
7117;DHT22;3600;48.568;7.870;2023-07-31T07:37:34;18.40;99.90
7117;DHT22;3600;48.568;7.870;2023-07-31T07:40:01;18.40;99.90
7117;DHT22;3600;48.568;7.870;2023-07-31T07:42:28;18.40;99.90
7117;DHT22;3600;48.568;7.870;2023-07-31T07:44:55;18.40;99.90
7117;DHT22;3600;48.568;7.870;2023-07-31T07:47:22;18.40;99.90
7117;DHT22;3600;48.568;7.870;2023-07-31T07:49:49;18.40;99.90
7117;DHT22;3600;48.568;7.870;2023-07-31T07:52:19;18.50;99.90
7117;DHT22;3600;48.568;7.870;2023-07-31T07:54:46;18.50;99.90
7117;DHT22;3600;48.568;7.870;2023-07-31T07:57:13;18.60;99.90
7117;DHT22;3600;48.568;7.870;2023-07-31T07:59:40;18.60;99.90
7117;DHT22;3600;48.568;7.870;2023-07-31T08:02:07;18.70;99.90
7117;DHT22;3600;48.568;7.870;2023-07-31T08:04:34;18.70;99.90
7117;DHT22;3600;48.568;7.870;2023-07-31T08:07:01;18.80;99.90
7117;DHT22;3600;48.568;7.870;2023-07-31T08:09:28;18.80;99.90
7117;DHT22;3600;48.568;7.870;2023-07-31T08:11:55;18.90;99.90
7117;DHT22;3600;48.568;7.870;2023-07-31T08:14:24;19.00;99.90
7117;DHT22;3600;48.568;7.870;2023-07-31T08:16:51;19.10;99.90
7117;DHT22;3600;48.568;7.870;2023-07-31T08:19:18;19.10;99.90
7117;DHT22;3600;48.568;7.870;2023-07-31T08:21:45;19.20;99.90
7117;DHT22;3600;48.568;7.870;2023-07-31T08:24:12;19.20;99.90
7117;DHT22;3600;48.568;7.870;2023-07-31T08:26:39;19.30;99.90
7117;DHT22;3600;48.568;7.870;2023-07-31T08:29:06;19.30;99.90
7117;DHT22;3600;48.568;7.870;2023-07-31T08:31:33;19.40;99.90
7117;DHT22;3600;48.568;7.870;2023-07-31T08:34:00;19.50;99.90
7117;DHT22;3600;48.568;7.870;2023-07-31T08:36:27;19.60;99.90
7117;DHT22;3600;48.568;7.870;2023-07-31T08:38:56;19.60;99.90
7117;DHT22;3600;48.568;7.870;2023-07-31T08:41:23;19.70;99.90
7117;DHT22;3600;48.568;7.870;2023-07-31T08:43:50;19.80;99.90
7117;DHT22;3600;48.568;7.870;2023-07-31T08:46:18;19.80;99.90
7117;DHT22;3600;48.568;7.870;2023-07-31T08:48:47;19.90;99.90
7117;DHT22;3600;48.568;7.870;2023-07-31T08:51:14;19.90;99.90
7117;DHT22;3600;48.568;7.870;2023-07-31T08:53:41;19.90;99.90
7117;DHT22;3600;48.568;7.870;2023-07-31T08:56:10;20.00;99.90
7117;DHT22;3600;48.568;7.870;2023-07-31T08:58:38;20.00;99.90
7117;DHT22;3600;48.568;7.870;2023-07-31T09:01:06;20.10;99.90
7117;DHT22;3600;48.568;7.870;2023-07-31T09:03:34;20.20;99.90
7117;DHT22;3600;48.568;7.870;2023-07-31T09:06:03;20.20;99.90
7117;DHT22;3600;48.568;7.870;2023-07-31T09:08:32;20.40;99.90
7117;DHT22;3600;48.568;7.870;2023-07-31T09:11:00;20.50;99.90
7117;DHT22;3600;48.568;7.870;2023-07-31T09:13:30;20.60;99.90
7117;DHT22;3600;48.568;7.870;2023-07-31T09:15:58;20.70;99.90
7117;DHT22;3600;48.568;7.870;2023-07-31T09:18:25;20.80;99.90
7117;DHT22;3600;48.568;7.870;2023-07-31T09:23:41;21.10;99.90
7117;DHT22;3600;48.568;7.870;2023-07-31T09:26:08;21.20;99.90
7117;DHT22;3600;48.568;7.870;2023-07-31T09:28:36;21.20;99.90
7117;DHT22;3600;48.568;7.870;2023-07-31T09:31:03;21.20;99.90
7117;DHT22;3600;48.568;7.870;2023-07-31T09:33:29;21.20;99.90
7117;DHT22;3600;48.568;7.870;2023-07-31T09:35:58;21.20;99.90
7117;DHT22;3600;48.568;7.870;2023-07-31T09:38:27;21.30;99.90
7117;DHT22;3600;48.568;7.870;2023-07-31T09:40:53;21.30;99.90
7117;DHT22;3600;48.568;7.870;2023-07-31T09:43:21;21.40;99.90
7117;DHT22;3600;48.568;7.870;2023-07-31T09:45:55;21.40;99.90
7117;DHT22;3600;48.568;7.870;2023-07-31T09:48:23;21.40;99.90
7117;DHT22;3600;48.568;7.870;2023-07-31T09:50:52;21.30;99.90
7117;DHT22;3600;48.568;7.870;2023-07-31T09:53:19;21.30;99.90
7117;DHT22;3600;48.568;7.870;2023-07-31T09:55:58;21.40;99.90
7117;DHT22;3600;48.568;7.870;2023-07-31T09:58:29;21.40;99.90
7117;DHT22;3600;48.568;7.870;2023-07-31T10:00:58;21.40;99.90
7117;DHT22;3600;48.568;7.870;2023-07-31T10:03:27;21.60;99.90
7117;DHT22;3600;48.568;7.870;2023-07-31T10:05:57;21.60;99.90
7117;DHT22;3600;48.568;7.870;2023-07-31T10:08:29;21.60;99.90
7117;DHT22;3600;48.568;7.870;2023-07-31T10:11:02;21.60;99.90
7117;DHT22;3600;48.568;7.870;2023-07-31T10:13:30;21.60;99.90
7117;DHT22;3600;48.568;7.870;2023-07-31T10:15:59;21.60;99.90
7117;DHT22;3600;48.568;7.870;2023-07-31T10:18:28;21.60;99.90
7117;DHT22;3600;48.568;7.870;2023-07-31T10:20:56;21.50;99.90
7117;DHT22;3600;48.568;7.870;2023-07-31T10:23:24;21.40;99.90
7117;DHT22;3600;48.568;7.870;2023-07-31T10:25:53;21.30;99.90
7117;DHT22;3600;48.568;7.870;2023-07-31T10:28:24;21.10;99.90
7117;DHT22;3600;48.568;7.870;2023-07-31T10:30:51;21.10;99.90
7117;DHT22;3600;48.568;7.870;2023-07-31T10:33:19;21.00;99.90
7117;DHT22;3600;48.568;7.870;2023-07-31T10:35:47;21.00;99.90
7117;DHT22;3600;48.568;7.870;2023-07-31T10:38:15;21.00;99.90
7117;DHT22;3600;48.568;7.870;2023-07-31T10:40:42;21.00;99.90
7117;DHT22;3600;48.568;7.870;2023-07-31T10:43:09;21.00;99.90
7117;DHT22;3600;48.568;7.870;2023-07-31T10:45:49;21.00;99.90
7117;DHT22;3600;48.568;7.870;2023-07-31T10:48:16;21.00;99.90
7117;DHT22;3600;48.568;7.870;2023-07-31T10:50:52;21.00;99.90
7117;DHT22;3600;48.568;7.870;2023-07-31T10:53:29;21.00;99.90
7117;DHT22;3600;48.568;7.870;2023-07-31T10:56:00;21.00;99.90
7117;DHT22;3600;48.568;7.870;2023-07-31T10:58:27;21.10;99.90
7117;DHT22;3600;48.568;7.870;2023-07-31T11:01:01;21.10;99.90
7117;DHT22;3600;48.568;7.870;2023-07-31T11:03:49;21.20;99.90
7117;DHT22;3600;48.568;7.870;2023-07-31T11:06:19;21.30;99.90
7117;DHT22;3600;48.568;7.870;2023-07-31T11:08:48;21.30;99.90
7117;DHT22;3600;48.568;7.870;2023-07-31T11:11:20;21.40;99.90
7117;DHT22;3600;48.568;7.870;2023-07-31T11:13:50;21.50;99.90
7117;DHT22;3600;48.568;7.870;2023-07-31T11:16:24;21.70;99.90
7117;DHT22;3600;48.568;7.870;2023-07-31T11:18:52;22.00;99.90
7117;DHT22;3600;48.568;7.870;2023-07-31T11:21:22;22.30;99.90
7117;DHT22;3600;48.568;7.870;2023-07-31T11:23:51;22.50;99.90
7117;DHT22;3600;48.568;7.870;2023-07-31T11:26:19;22.70;99.90
7117;DHT22;3600;48.568;7.870;2023-07-31T11:28:47;22.90;99.90
7117;DHT22;3600;48.568;7.870;2023-07-31T11:31:14;23.10;99.90
7117;DHT22;3600;48.568;7.870;2023-07-31T11:33:41;23.20;99.90
7117;DHT22;3600;48.568;7.870;2023-07-31T11:36:18;23.30;99.90
7117;DHT22;3600;48.568;7.870;2023-07-31T11:38:46;23.30;99.90
7117;DHT22;3600;48.568;7.870;2023-07-31T11:41:16;23.40;99.90
7117;DHT22;3600;48.568;7.870;2023-07-31T11:43:45;23.30;99.90
7117;DHT22;3600;48.568;7.870;2023-07-31T11:46:13;23.30;99.90
7117;DHT22;3600;48.568;7.870;2023-07-31T11:48:42;23.20;99.90
7117;DHT22;3600;48.568;7.870;2023-07-31T11:51:10;23.10;99.90
7117;DHT22;3600;48.568;7.870;2023-07-31T11:53:53;23.00;99.90
7117;DHT22;3600;48.568;7.870;2023-07-31T11:56:23;22.90;99.90
7117;DHT22;3600;48.568;7.870;2023-07-31T11:58:53;22.90;99.90
7117;DHT22;3600;48.568;7.870;2023-07-31T12:01:22;23.00;99.90
7117;DHT22;3600;48.568;7.870;2023-07-31T12:03:50;23.10;99.90
7117;DHT22;3600;48.568;7.870;2023-07-31T12:06:17;23.10;99.90
7117;DHT22;3600;48.568;7.870;2023-07-31T12:08:44;23.10;99.90
7117;DHT22;3600;48.568;7.870;2023-07-31T12:11:11;23.10;99.90
7117;DHT22;3600;48.568;7.870;2023-07-31T12:13:38;23.00;99.90
7117;DHT22;3600;48.568;7.870;2023-07-31T12:16:05;23.00;99.90
7117;DHT22;3600;48.568;7.870;2023-07-31T12:18:36;23.00;99.90
7117;DHT22;3600;48.568;7.870;2023-07-31T12:21:06;23.10;99.90
7117;DHT22;3600;48.568;7.870;2023-07-31T12:23:36;23.10;99.90
7117;DHT22;3600;48.568;7.870;2023-07-31T12:26:14;23.20;99.90
7117;DHT22;3600;48.568;7.870;2023-07-31T12:28:45;23.40;99.90
7117;DHT22;3600;48.568;7.870;2023-07-31T12:33:50;23.40;99.90
7117;DHT22;3600;48.568;7.870;2023-07-31T12:36:23;23.40;99.90
7117;DHT22;3600;48.568;7.870;2023-07-31T12:38:51;23.50;99.90
7117;DHT22;3600;48.568;7.870;2023-07-31T12:41:18;23.40;99.90
7117;DHT22;3600;48.568;7.870;2023-07-31T12:43:45;23.40;99.90
7117;DHT22;3600;48.568;7.870;2023-07-31T12:46:12;23.30;99.90
7117;DHT22;3600;48.568;7.870;2023-07-31T12:48:40;23.40;99.90
7117;DHT22;3600;48.568;7.870;2023-07-31T12:51:07;23.40;99.90
7117;DHT22;3600;48.568;7.870;2023-07-31T12:53:35;23.50;99.90
7117;DHT22;3600;48.568;7.870;2023-07-31T12:56:02;23.40;99.90
7117;DHT22;3600;48.568;7.870;2023-07-31T12:58:29;23.40;99.90
7117;DHT22;3600;48.568;7.870;2023-07-31T13:00:57;23.40;99.90
7117;DHT22;3600;48.568;7.870;2023-07-31T13:03:24;23.40;99.90
7117;DHT22;3600;48.568;7.870;2023-07-31T13:05:51;23.30;99.90
7117;DHT22;3600;48.568;7.870;2023-07-31T13:08:19;23.30;99.90
7117;DHT22;3600;48.568;7.870;2023-07-31T13:10:46;23.40;99.90
7117;DHT22;3600;48.568;7.870;2023-07-31T13:13:13;23.40;99.90
7117;DHT22;3600;48.568;7.870;2023-07-31T13:15:40;23.60;99.90
7117;DHT22;3600;48.568;7.870;2023-07-31T13:18:07;23.70;99.90
7117;DHT22;3600;48.568;7.870;2023-07-31T13:20:33;23.90;99.90
7117;DHT22;3600;48.568;7.870;2023-07-31T13:23:00;24.00;99.90
7117;DHT22;3600;48.568;7.870;2023-07-31T13:25:27;23.90;99.90
7117;DHT22;3600;48.568;7.870;2023-07-31T13:27:55;24.00;99.90
7117;DHT22;3600;48.568;7.870;2023-07-31T13:30:22;24.00;99.90
7117;DHT22;3600;48.568;7.870;2023-07-31T13:32:49;24.10;99.90
7117;DHT22;3600;48.568;7.870;2023-07-31T13:35:16;24.20;99.90
7117;DHT22;3600;48.568;7.870;2023-07-31T13:37:43;24.40;99.90
7117;DHT22;3600;48.568;7.870;2023-07-31T13:40:11;24.50;99.90
7117;DHT22;3600;48.568;7.870;2023-07-31T13:42:40;24.60;99.90
7117;DHT22;3600;48.568;7.870;2023-07-31T13:45:07;24.60;99.90
7117;DHT22;3600;48.568;7.870;2023-07-31T13:47:34;24.60;99.90
7117;DHT22;3600;48.568;7.870;2023-07-31T13:50:04;24.70;99.90
7117;DHT22;3600;48.568;7.870;2023-07-31T13:52:31;24.80;99.90
7117;DHT22;3600;48.568;7.870;2023-07-31T13:54:57;24.90;99.90
7117;DHT22;3600;48.568;7.870;2023-07-31T13:57:24;24.90;99.90
7117;DHT22;3600;48.568;7.870;2023-07-31T13:59:51;24.90;99.90
7117;DHT22;3600;48.568;7.870;2023-07-31T14:02:18;24.80;99.90
7117;DHT22;3600;48.568;7.870;2023-07-31T14:04:45;24.80;99.90
7117;DHT22;3600;48.568;7.870;2023-07-31T14:07:12;24.80;99.90
7117;DHT22;3600;48.568;7.870;2023-07-31T14:09:38;24.70;99.90
7117;DHT22;3600;48.568;7.870;2023-07-31T14:12:05;24.60;99.90
7117;DHT22;3600;48.568;7.870;2023-07-31T14:14:32;24.40;99.90
7117;DHT22;3600;48.568;7.870;2023-07-31T14:17:01;24.30;99.90
7117;DHT22;3600;48.568;7.870;2023-07-31T14:19:28;24.20;99.90
7117;DHT22;3600;48.568;7.870;2023-07-31T14:21:55;24.10;99.90
7117;DHT22;3600;48.568;7.870;2023-07-31T14:24:37;24.10;99.90
7117;DHT22;3600;48.568;7.870;2023-07-31T14:27:05;24.00;99.90
7117;DHT22;3600;48.568;7.870;2023-07-31T14:29:32;23.90;99.90
7117;DHT22;3600;48.568;7.870;2023-07-31T14:31:59;23.90;99.90
7117;DHT22;3600;48.568;7.870;2023-07-31T14:34:26;23.90;99.90
7117;DHT22;3600;48.568;7.870;2023-07-31T14:36:53;23.90;99.90
7117;DHT22;3600;48.568;7.870;2023-07-31T14:39:20;24.00;99.90
7117;DHT22;3600;48.568;7.870;2023-07-31T14:41:47;24.10;99.90
7117;DHT22;3600;48.568;7.870;2023-07-31T14:44:15;24.10;99.90
7117;DHT22;3600;48.568;7.870;2023-07-31T14:46:41;24.20;99.90
7117;DHT22;3600;48.568;7.870;2023-07-31T14:49:09;24.20;99.90
7117;DHT22;3600;48.568;7.870;2023-07-31T14:51:35;24.20;99.90
7117;DHT22;3600;48.568;7.870;2023-07-31T14:54:02;24.30;99.90
7117;DHT22;3600;48.568;7.870;2023-07-31T14:56:29;24.30;99.90
7117;DHT22;3600;48.568;7.870;2023-07-31T14:58:56;24.30;99.90
7117;DHT22;3600;48.568;7.870;2023-07-31T15:01:23;24.20;99.90
7117;DHT22;3600;48.568;7.870;2023-07-31T15:03:50;24.10;99.90
7117;DHT22;3600;48.568;7.870;2023-07-31T15:06:17;24.30;99.90
7117;DHT22;3600;48.568;7.870;2023-07-31T15:08:45;24.40;99.90
7117;DHT22;3600;48.568;7.870;2023-07-31T15:11:13;24.40;99.90
7117;DHT22;3600;48.568;7.870;2023-07-31T15:13:42;24.40;99.90
7117;DHT22;3600;48.568;7.870;2023-07-31T15:16:09;24.50;99.90
7117;DHT22;3600;48.568;7.870;2023-07-31T15:18:42;24.60;99.90
7117;DHT22;3600;48.568;7.870;2023-07-31T15:21:09;24.60;99.90
7117;DHT22;3600;48.568;7.870;2023-07-31T15:23:42;24.60;99.90
7117;DHT22;3600;48.568;7.870;2023-07-31T15:26:09;24.60;99.90
7117;DHT22;3600;48.568;7.870;2023-07-31T15:28:36;24.60;99.90
7117;DHT22;3600;48.568;7.870;2023-07-31T15:31:04;24.70;99.90
7117;DHT22;3600;48.568;7.870;2023-07-31T15:33:31;24.60;99.90
7117;DHT22;3600;48.568;7.870;2023-07-31T15:35:58;24.60;99.90
7117;DHT22;3600;48.568;7.870;2023-07-31T15:38:24;24.60;99.90
7117;DHT22;3600;48.568;7.870;2023-07-31T15:40:51;24.50;99.90
7117;DHT22;3600;48.568;7.870;2023-07-31T15:43:19;24.40;99.90
7117;DHT22;3600;48.568;7.870;2023-07-31T15:45:47;24.20;99.90
7117;DHT22;3600;48.568;7.870;2023-07-31T15:48:14;24.20;99.90
7117;DHT22;3600;48.568;7.870;2023-07-31T15:50:41;24.10;99.90
7117;DHT22;3600;48.568;7.870;2023-07-31T15:53:07;24.00;99.90
7117;DHT22;3600;48.568;7.870;2023-07-31T15:55:34;24.00;99.90
7117;DHT22;3600;48.568;7.870;2023-07-31T15:58:01;23.90;99.90
7117;DHT22;3600;48.568;7.870;2023-07-31T16:00:28;23.80;99.90
7117;DHT22;3600;48.568;7.870;2023-07-31T16:02:55;23.80;99.90
7117;DHT22;3600;48.568;7.870;2023-07-31T16:05:22;23.80;99.90
7117;DHT22;3600;48.568;7.870;2023-07-31T16:07:49;23.80;99.90
7117;DHT22;3600;48.568;7.870;2023-07-31T16:10:16;23.70;99.90
7117;DHT22;3600;48.568;7.870;2023-07-31T16:12:42;23.70;99.90
7117;DHT22;3600;48.568;7.870;2023-07-31T16:15:09;23.70;99.90
7117;DHT22;3600;48.568;7.870;2023-07-31T16:17:36;23.70;99.90
7117;DHT22;3600;48.568;7.870;2023-07-31T16:20:04;23.70;99.90
7117;DHT22;3600;48.568;7.870;2023-07-31T16:22:31;23.70;99.90